Time;durP1;ratioP1;P1;durP2;ratioP2;P2;SDS_P1;SDS_P2;PMS_P1;PMS_P2;Temp;Humidity;BMP_temperature;BMP_pressure;BME280_temperature;BME280_humidity;BME280_pressure;Samples;Min_cycle;Max_cycle;Signal;HPM_P1;HPM_P2
2021/06/01 06:50:40;;;;;;;;;;;;;;;12.36;83.61;99652.72;5429712;22;19996;-85
2021/06/01 06:53:05;;;;;;;;;;;;;;;12.43;83.56;99650.59;5015581;28;19921;-84
2021/06/01 06:55:32;;;;;;;;;;;;;;;12.46;82.99;99650.41;5015510;28;20287;-85
2021/06/01 06:57:57;;;;;;;;;;;;;;;12.13;80.64;99656.56;4999406;28;19957;-86
2021/06/01 07:00:24;;;;;;;;;;;;;;;12.22;82.72;99650.78;5015931;28;19922;-84
2021/06/01 07:02:50;;;;;;;;;;;;;;;12.44;84.82;99645.19;4997297;28;19932;-83
2021/06/01 07:05:17;;;;;;;;;;;;;;;12.41;84.54;99642.69;5013132;28;19922;-83
2021/06/01 07:07:42;;;;;;;;;;;;;;;12.31;79.97;99638.81;5013728;28;19932;-83
2021/06/01 07:10:09;;;;;;;;;;;;;;;12.08;84.58;99646.19;4995973;28;19975;-82
2021/06/01 07:12:34;;;;;;;;;;;;;;;12.13;85.44;99649.47;4994502;28;20220;-83
2021/06/01 07:15:10;;;;;;;;;;;;;;;11.74;85.17;99653.19;5009985;28;19922;-84
2021/06/01 07:17:35;;;;;;;;;;;;;;;12.08;83.78;99648.84;4994227;28;20106;-83
2021/06/01 07:20:01;;;;;;;;;;;;;;;12.17;81.32;99637.75;4976256;28;19932;-83
2021/06/01 07:22:26;;;;;;;;;;;;;;;12.38;82.04;99640.22;4976509;28;20312;-83
2021/06/01 07:24:53;;;;;;;;;;;;;;;12.40;79.73;99635.69;4992703;28;21199;-81
2021/06/01 07:27:19;;;;;;;;;;;;;;;12.56;78.05;99629.53;5003134;28;19927;-83
2021/06/01 07:29:44;;;;;;;;;;;;;;;12.57;77.91;99633.91;5012767;28;19928;-83
2021/06/01 07:32:09;;;;;;;;;;;;;;;12.58;78.07;99627.66;5013504;28;20403;-81
2021/06/01 07:34:34;;;;;;;;;;;;;;;12.24;73.64;99622.34;4995484;28;19925;-82
2021/06/01 07:37:00;;;;;;;;;;;;;;;12.23;79.75;99641.00;5013531;28;20036;-81
2021/06/01 07:39:25;;;;;;;;;;;;;;;12.77;77.30;99631.03;5012620;28;20025;-80
2021/06/01 07:41:50;;;;;;;;;;;;;;;12.80;76.88;99625.56;5013931;28;20433;-83
2021/06/01 07:44:16;;;;;;;;;;;;;;;12.93;79.16;99630.22;5013637;28;19926;-83
2021/06/01 07:46:41;;;;;;;;;;;;;;;12.84;77.78;99637.75;5013307;28;20070;-79
2021/06/01 07:49:09;;;;;;;;;;;;;;;12.64;82.51;99635.31;5010269;28;20209;-86
2021/06/01 07:51:34;;;;;;;;;;;;;;;12.96;80.05;99620.25;4992860;28;19952;-90
2021/06/01 07:54:03;;;;;;;;;;;;;;;13.12;79.78;99633.56;4994408;28;19922;-90
2021/06/01 07:56:29;;;;;;;;;;;;;;;13.19;78.39;99626.94;5010245;28;20055;-90
2021/06/01 07:58:54;;;;;;;;;;;;;;;13.10;78.46;99622.16;5014555;28;19933;-88
2021/06/01 08:01:20;;;;;;;;;;;;;;;12.87;78.00;99616.28;4997065;28;20283;-87
2021/06/01 08:03:46;;;;;;;;;;;;;;;12.45;77.44;99624.81;4996354;28;19945;-87
2021/06/01 08:06:11;;;;;;;;;;;;;;;12.65;80.25;99611.31;4998068;28;19928;-87
2021/06/01 08:08:37;;;;;;;;;;;;;;;12.82;80.09;99607.72;4998941;28;20012;-89
2021/06/01 08:11:03;;;;;;;;;;;;;;;12.80;80.30;99617.59;5015674;28;20543;-90
2021/06/01 08:13:28;;;;;;;;;;;;;;;12.66;81.49;99610.34;4998399;28;19921;-89
2021/06/01 08:15:55;;;;;;;;;;;;;;;12.56;80.57;99610.94;5014664;28;20059;-88
2021/06/01 08:18:22;;;;;;;;;;;;;;;12.60;83.41;99609.84;4997232;28;19929;-88
2021/06/01 08:21:00;;;;;;;;;;;;;;;11.66;83.60;99614.66;4998026;28;19932;-87
2021/06/01 08:23:26;;;;;;;;;;;;;;;11.79;83.38;99611.31;4997465;28;19961;-88
2021/06/01 08:25:52;;;;;;;;;;;;;;;12.38;85.17;99611.00;4998990;28;20018;-87
2021/06/01 08:28:17;;;;;;;;;;;;;;;12.20;85.10;99596.88;5001889;28;19928;-87
2021/06/01 08:30:42;;;;;;;;;;;;;;;12.71;84.52;99600.31;5001905;28;19922;-88
2021/06/01 08:33:08;;;;;;;;;;;;;;;12.64;84.42;99604.28;5001057;28;20008;-87
2021/06/01 08:35:33;;;;;;;;;;;;;;;12.62;84.10;99599.97;5001474;28;19921;-87
2021/06/01 08:37:59;;;;;;;;;;;;;;;11.90;86.31;99596.63;5019132;28;20011;-88
2021/06/01 08:40:24;;;;;;;;;;;;;;;12.03;86.50;99592.47;5019311;28;20004;-91
2021/06/01 08:42:51;;;;;;;;;;;;;;;11.43;88.65;99585.69;5000939;28;19980;-89
2021/06/01 08:45:16;;;;;;;;;;;;;;;11.45;86.89;99586.50;5018727;28;19931;-91
2021/06/01 08:47:42;;;;;;;;;;;;;;;11.75;89.08;99591.16;5019452;28;20023;-89
2021/06/01 08:50:09;;;;;;;;;;;;;;;11.93;88.04;99583.25;5018731;28;20286;-89
2021/06/01 08:52:35;;;;;;;;;;;;;;;12.64;84.03;99588.31;5018642;28;19953;-89
2021/06/01 08:55:01;;;;;;;;;;;;;;;12.97;78.67;99583.88;5000554;28;19921;-91
2021/06/01 08:57:26;;;;;;;;;;;;;;;12.90;80.94;99578.03;4999920;28;20318;-83
2021/06/01 08:59:52;;;;;;;;;;;;;;;12.74;78.62;99578.03;5016519;28;20016;-85
2021/06/01 09:02:21;;;;;;;;;;;;;;;12.83;83.05;99574.88;5016369;28;20096;-84
2021/06/01 09:04:50;;;;;;;;;;;;;;;12.37;78.00;99577.38;5015639;28;19984;-83
2021/06/01 09:07:24;;;;;;;;;;;;;;;10.55;82.45;99581.06;5014936;28;19928;-83
2021/06/01 09:11:00;;;;;;;;;;;;;;;12.32;84.85;99572.31;5018254;28;19929;-88
2021/06/01 09:13:10;;;;;;;;;;;;;;;10.94;86.06;99572.16;4997216;28;20196;-84
2021/06/01 09:21:14;;;;;;;;;;;;;;;11.79;85.33;99567.97;5016361;28;19932;-81
2021/06/01 09:23:49;;;;;;;;;;;;;;;11.22;87.97;99568.19;5015914;28;19925;-88
2021/06/01 09:26:33;;;;;;;;;;;;;;;11.36;69.98;99571.03;4999652;28;20007;-87
2021/06/01 09:28:59;;;;;;;;;;;;;;;11.92;87.02;99565.59;5011206;28;19928;-88
2021/06/01 09:31:24;;;;;;;;;;;;;;;12.27;86.63;99558.44;5016020;28;19922;-88
2021/06/01 09:33:51;;;;;;;;;;;;;;;11.94;71.42;99561.06;5015908;28;19921;-85
2021/06/01 09:36:21;;;;;;;;;;;;;;;11.80;86.00;99557.28;4998954;28;19955;-86
2021/06/01 09:38:46;;;;;;;;;;;;;;;12.54;87.14;99550.75;5014877;28;19921;-85
2021/06/01 09:41:13;;;;;;;;;;;;;;;12.68;87.25;99552.66;5014315;28;19929;-82
2021/06/01 09:43:55;;;;;;;;;;;;;;;12.74;86.04;99546.13;5014840;28;20032;-83
2021/06/01 09:46:21;;;;;;;;;;;;;;;12.72;84.51;99548.88;5014847;28;19928;-84
2021/06/01 09:48:47;;;;;;;;;;;;;;;12.68;86.34;99547.34;5015218;28;19922;-83
2021/06/01 09:51:22;;;;;;;;;;;;;;;12.87;85.47;99547.16;4997105;28;19975;-85
2021/06/01 09:53:52;;;;;;;;;;;;;;;13.14;82.04;99541.22;5014481;28;20256;-87
2021/06/01 09:56:17;;;;;;;;;;;;;;;13.21;78.73;99528.41;5010981;28;19979;-86
2021/06/01 09:58:43;;;;;;;;;;;;;;;13.32;76.97;99530.47;5022349;28;19953;-88
2021/06/01 10:01:08;;;;;;;;;;;;;;;13.81;76.47;99536.44;5011029;28;19922;-86
2021/06/01 10:03:41;;;;;;;;;;;;;;;13.84;74.93;99539.88;4997872;28;19987;-81
2021/06/01 10:06:07;;;;;;;;;;;;;;;12.77;76.98;99527.38;5005884;28;19921;-82
2021/06/01 10:08:40;;;;;;;;;;;;;;;13.09;76.61;99524.69;4997300;28;20309;-82
2021/06/01 10:11:10;;;;;;;;;;;;;;;13.42;77.77;99524.56;5010125;28;19933;-83
2021/06/01 10:13:38;;;;;;;;;;;;;;;13.50;76.49;99523.22;5012005;28;20319;-82
2021/06/01 10:16:04;;;;;;;;;;;;;;;13.14;79.75;99527.94;4995129;28;19922;-83
2021/06/01 10:18:30;;;;;;;;;;;;;;;13.09;80.50;99524.69;5010565;28;19922;-81
2021/06/01 10:20:59;;;;;;;;;;;;;;;13.38;76.14;99520.34;5011733;28;19932;-81
2021/06/01 10:23:29;;;;;;;;;;;;;;;13.27;72.28;99520.97;5012785;28;20420;-85
2021/06/01 10:25:55;;;;;;;;;;;;;;;12.56;82.38;99515.25;5009209;28;19921;-82
2021/06/01 10:28:33;;;;;;;;;;;;;;;12.91;81.13;99515.97;5012554;28;19929;-82
2021/06/01 10:30:58;;;;;;;;;;;;;;;13.01;80.26;99510.97;5012383;28;20000;-82
2021/06/01 10:33:32;;;;;;;;;;;;;;;13.09;79.20;99508.72;5010068;28;20033;-82
2021/06/01 10:50:06;;;;;;;;;;;;;;;12.77;79.21;99495.47;4992671;28;19936;-81
2021/06/01 10:52:32;;;;;;;;;;;;;;;12.67;80.97;99496.94;4993007;28;19922;-83
2021/06/01 10:54:59;;;;;;;;;;;;;;;12.46;82.17;99497.19;5008582;28;19975;-83
2021/06/01 10:57:44;;;;;;;;;;;;;;;12.23;82.75;99494.94;4995265;28;19921;-81
2021/06/01 11:03:05;;;;;;;;;;;;;;;12.45;81.43;99498.13;5012583;28;19937;-81
2021/06/01 11:05:51;;;;;;;;;;;;;;;12.86;76.26;99491.41;4995102;28;19922;-81
2021/06/01 11:08:32;;;;;;;;;;;;;;;12.85;74.50;99489.72;4977822;28;19922;-81
2021/06/01 11:10:58;;;;;;;;;;;;;;;12.83;74.48;99486.28;5000858;28;20463;-82
2021/06/01 11:13:23;;;;;;;;;;;;;;;12.84;74.49;99483.53;4991017;28;19944;-81
2021/06/01 11:15:55;;;;;;;;;;;;;;;12.31;81.01;99484.72;5001505;28;19917;-81
2021/06/01 11:18:22;;;;;;;;;;;;;;;12.79;76.38;99480.28;5006832;28;19933;-83
2021/06/01 11:21:07;;;;;;;;;;;;;;;12.87;75.22;99488.66;5003000;28;20015;-82
2021/06/01 11:23:53;;;;;;;;;;;;;;;12.66;77.96;99479.25;4995366;28;20016;-82
2021/06/01 11:34:52;;;;;;;;;;;;;;;12.69;78.62;99461.34;4995162;28;19932;-82
2021/06/01 11:37:27;;;;;;;;;;;;;;;13.13;77.29;99470.38;5009021;28;19980;-80
